Startpagina
METAR-TAF:

METAR-TAF

Vliegvelden :

Kristianstad Österlen Airport

Kristianstad, Zweden

breedte: 55-55N, lengte: 014-05E, hoogte: 23 m

Actueel weer

Dit bericht is 19 minuten geleden gemaakt, om 22:20 UTC
Wind 2 kt uit het noordnoordwesten
Temperatuur 10°C
Vochtigheid 62%
Druk 1028 hPa
Zicht 10 km of meer

METAR: ESMK 312220Z AUTO 34002KT 9999 NCD 10/03 Q1028

Tijdstip: 00:39 (22:39 UTC)


TAF: ontbreekt

Waarnemingen en weersverwachtingen van meer dan 4000 vliegvelden (METAR en TAF).

De beschikbare stations zijn de gele en rode punten op de kaart.

Ga met uw muis naar het station om de naam te zien.

Klik dan om waarnemingen en weersverwachtingen te zien.

kaart wijzigen: klik op de groene knoppen met een zwart kruis om in te zoomen, op de groene knop met een streepje om uit te zoomen of op de groene pijlen voor aangrenzende kaarten.


METAR-TAF: